createdAt,value
2018-02-21T00:01:06.325Z,53.67
2018-02-21T00:03:33.855Z,54.23
2018-02-21T00:06:01.380Z,58.07
2018-02-21T00:08:28.882Z,56.03
2018-02-21T00:10:56.420Z,56.17
2018-02-21T00:13:23.932Z,58.00
2018-02-21T00:15:51.429Z,58.10
2018-02-21T00:18:18.962Z,55.10
2018-02-21T00:20:47.195Z,59.50
2018-02-21T00:23:16.091Z,62.27
2018-02-21T00:25:44.396Z,54.77
2018-02-21T00:28:11.895Z,59.10
2018-02-21T00:30:39.372Z,58.53
2018-02-21T00:33:06.910Z,56.47
2018-02-21T00:35:35.258Z,59.73
2018-02-21T00:38:03.514Z,54.23
2018-02-21T00:40:31.000Z,57.87
2018-02-21T00:42:59.249Z,57.67
2018-02-21T00:45:26.730Z,60.63
2018-02-21T00:47:54.991Z,67.80
2018-02-21T00:50:22.479Z,58.33
2018-02-21T00:52:50.726Z,62.43
2018-02-21T00:55:18.211Z,60.90
2018-02-21T00:57:46.470Z,61.77
2018-02-21T01:00:13.954Z,55.37
2018-02-21T01:02:41.435Z,57.80
2018-02-21T01:05:08.936Z,59.67
2018-02-21T01:07:36.519Z,58.80
2018-02-21T01:10:04.767Z,64.63
2018-02-21T01:12:32.248Z,53.23
2018-02-21T01:15:00.490Z,58.27
2018-02-21T01:17:27.983Z,57.57
2018-02-21T01:19:56.230Z,62.30
2018-02-21T01:22:23.734Z,66.43
2018-02-21T01:24:52.038Z,63.73
2018-02-21T01:27:19.520Z,61.50
2018-02-21T01:29:47.008Z,65.00
2018-02-21T01:32:14.504Z,60.80
2018-02-21T01:34:41.982Z,61.00
2018-02-21T01:37:09.498Z,60.20
2018-02-21T01:39:37.739Z,61.40
2018-02-21T01:42:05.238Z,60.53
2018-02-21T01:44:33.486Z,65.13
2018-02-21T01:47:00.970Z,65.30
2018-02-21T01:49:29.277Z,61.60
2018-02-21T01:51:56.915Z,66.30
2018-02-21T01:54:25.165Z,63.13
2018-02-21T01:56:52.654Z,62.53
2018-02-21T01:59:20.908Z,63.47
2018-02-21T02:01:48.397Z,61.10
2018-02-21T02:04:15.885Z,62.30
2018-02-21T02:06:43.357Z,61.50
2018-02-21T02:09:10.837Z,57.57
2018-02-21T02:11:39.816Z,62.93
2018-02-21T02:14:07.348Z,61.80
2018-02-21T02:16:34.846Z,63.40
2018-02-21T02:19:02.341Z,62.03
2018-02-21T02:21:29.828Z,60.87
2018-02-21T02:23:57.330Z,63.40
2018-02-21T02:26:24.811Z,63.67
2018-02-21T02:28:53.043Z,63.30
2018-02-21T02:31:20.534Z,62.73
2018-02-21T02:33:48.777Z,65.67
2018-02-21T02:36:16.711Z,66.00
2018-02-21T02:38:56.178Z,67.57
2018-02-21T02:41:23.672Z,68.80
2018-02-21T02:43:51.910Z,60.60
2018-02-21T02:46:19.443Z,62.27
2018-02-21T02:48:46.918Z,63.00
2018-02-21T02:51:14.425Z,64.00
2018-02-21T02:53:42.673Z,57.60
2018-02-21T02:56:10.163Z,63.63
2018-02-21T02:58:38.408Z,65.43
2018-02-21T03:01:05.909Z,59.33
2018-02-21T03:03:34.158Z,64.60
2018-02-21T03:06:01.907Z,61.43
2018-02-21T03:08:29.557Z,61.50
2018-02-21T03:10:57.066Z,61.20
2018-02-21T03:13:25.290Z,60.00
2018-02-21T03:15:52.750Z,61.70
2018-02-21T03:18:20.286Z,60.37
2018-02-21T03:20:47.760Z,61.57
2018-02-21T03:23:15.231Z,64.77
2018-02-21T03:25:42.778Z,62.60
2018-02-21T03:28:10.268Z,67.00
2018-02-21T03:30:37.834Z,62.70
2018-02-21T03:33:05.313Z,62.03
2018-02-21T03:35:33.547Z,64.83
2018-02-21T03:38:01.043Z,63.80
2018-02-21T03:40:29.285Z,65.00
2018-02-21T03:42:56.783Z,65.77
2018-02-21T03:45:25.060Z,66.07
2018-02-21T03:47:53.299Z,64.77
2018-02-21T03:50:20.799Z,60.57
2018-02-21T03:52:49.458Z,69.47
2018-02-21T03:55:16.946Z,70.67
2018-02-21T03:57:45.182Z,67.23
2018-02-21T04:00:12.665Z,65.47
2018-02-21T04:02:40.142Z,70.33
2018-02-21T04:05:07.627Z,68.40
2018-02-21T04:07:35.233Z,62.27
2018-02-21T04:10:02.729Z,63.20
2018-02-21T04:12:30.201Z,69.37
2018-02-21T04:14:57.697Z,67.63
2018-02-21T04:17:26.681Z,63.10
2018-02-21T04:19:54.166Z,67.67
2018-02-21T04:22:21.640Z,64.50
2018-02-21T04:24:49.897Z,65.50
2018-02-21T04:27:17.366Z,63.20
2018-02-21T04:29:44.848Z,60.03
2018-02-21T04:32:12.351Z,69.57
2018-02-21T04:34:39.822Z,62.87
2018-02-21T04:37:07.327Z,63.80
2018-02-21T04:39:34.823Z,61.40
2018-02-21T04:42:02.314Z,57.60
2018-02-21T04:44:29.776Z,61.67
2018-02-21T04:46:57.272Z,64.67
2018-02-21T04:49:24.756Z,61.77
2018-02-21T04:51:52.268Z,67.03
2018-02-21T04:54:24.045Z,61.97
2018-02-21T04:56:58.309Z,61.73
2018-02-21T04:59:35.710Z,61.50
2018-02-21T05:02:03.196Z,62.60
2018-02-21T05:04:31.455Z,65.33
2018-02-21T05:06:58.947Z,62.50
2018-02-21T05:09:26.413Z,66.63
2018-02-21T05:11:53.900Z,68.23
2018-02-21T05:14:21.398Z,59.53
2018-02-21T05:16:49.689Z,62.13
2018-02-21T05:19:17.917Z,61.50
2018-02-21T05:21:45.398Z,63.47
2018-02-21T05:24:12.885Z,60.13
2018-02-21T05:26:40.369Z,60.20
2018-02-21T05:29:07.854Z,59.53
2018-02-21T05:31:35.321Z,64.90
2018-02-21T05:34:02.808Z,58.70
2018-02-21T05:36:31.064Z,57.30
2018-02-21T05:38:58.541Z,61.57
2018-02-21T05:41:26.032Z,58.53
2018-02-21T05:43:53.531Z,58.80
2018-02-21T05:46:21.041Z,59.20
2018-02-21T05:48:48.523Z,63.70
2018-02-21T05:51:16.029Z,66.17
2018-02-21T05:53:43.546Z,65.00
2018-02-21T05:56:11.009Z,62.37
2018-02-21T05:58:38.498Z,61.00
2018-02-21T06:01:06.739Z,67.43
2018-02-21T06:03:34.232Z,62.37
2018-02-21T06:06:01.731Z,63.30
2018-02-21T06:08:29.187Z,66.20
2018-02-21T06:10:56.676Z,66.43
2018-02-21T06:13:24.171Z,69.77
2018-02-21T06:15:52.601Z,67.97
2018-02-21T06:18:20.075Z,63.60
2018-02-21T06:20:47.564Z,62.37
2018-02-21T06:23:15.067Z,62.77
2018-02-21T06:25:42.649Z,69.53
2018-02-21T06:28:10.158Z,65.57
2018-02-21T06:30:38.434Z,62.97
2018-02-21T06:33:06.683Z,60.00
2018-02-21T06:35:34.919Z,63.33
2018-02-21T06:38:02.442Z,63.53
2018-02-21T06:40:31.724Z,61.47
2018-02-21T06:42:59.223Z,63.47
2018-02-21T06:45:26.759Z,60.70
2018-02-21T06:47:54.990Z,57.23
2018-02-21T06:50:23.447Z,59.10
2018-02-21T06:52:50.977Z,58.70
2018-02-21T06:55:19.217Z,55.40
2018-02-21T06:57:46.836Z,53.57
2018-02-21T07:00:14.798Z,56.77
2018-02-21T07:02:42.292Z,54.00
2018-02-21T07:05:09.878Z,56.23
2018-02-21T07:07:37.424Z,59.40
2018-02-21T07:10:04.945Z,56.30
2018-02-21T07:12:32.416Z,56.37
2018-02-21T07:14:59.913Z,64.70
2018-02-21T07:17:27.394Z,55.20
2018-02-21T07:19:55.644Z,60.70
2018-02-21T07:22:23.161Z,59.20
2018-02-21T07:24:50.649Z,57.83
2018-02-21T07:27:18.146Z,57.47
2018-02-21T07:29:46.396Z,56.83
2018-02-21T07:32:13.871Z,56.90
2018-02-21T07:34:41.365Z,58.13
2018-02-21T07:37:08.848Z,58.63
2018-02-21T07:39:36.358Z,56.10
2018-02-21T07:42:04.593Z,53.07
2018-02-21T07:44:32.887Z,57.90
2018-02-21T07:47:00.388Z,52.40
2018-02-21T07:49:27.880Z,53.10
2018-02-21T07:51:55.543Z,58.67
2018-02-21T07:54:23.026Z,61.27
2018-02-21T07:56:50.522Z,53.13
2018-02-21T07:59:18.785Z,57.40
2018-02-21T08:01:47.026Z,53.17
2018-02-21T08:04:14.494Z,55.10
2018-02-21T08:06:42.051Z,56.43
2018-02-21T08:09:09.535Z,55.53
2018-02-21T08:11:37.053Z,54.83
2018-02-21T08:14:04.552Z,55.97
2018-02-21T08:16:32.019Z,52.50
2018-02-21T08:19:00.252Z,53.77
2018-02-21T08:21:27.732Z,52.27
2018-02-21T08:23:55.273Z,52.37
2018-02-21T08:26:22.743Z,51.27
2018-02-21T08:28:50.249Z,51.27
2018-02-21T08:31:30.675Z,55.87
2018-02-21T08:33:58.180Z,52.27
2018-02-21T08:36:25.660Z,53.77
2018-02-21T08:38:53.161Z,52.60
2018-02-21T08:41:20.635Z,53.20
2018-02-21T08:43:48.102Z,52.87
2018-02-21T08:46:15.605Z,49.50
2018-02-21T08:48:43.862Z,52.90
2018-02-21T08:51:11.762Z,49.43
2018-02-21T08:53:39.268Z,52.17
2018-02-21T08:56:07.584Z,52.20
2018-02-21T08:58:35.823Z,49.90
2018-02-21T09:01:03.296Z,51.83
2018-02-21T09:03:30.757Z,50.07
2018-02-21T09:05:58.253Z,47.17
2018-02-21T09:08:26.501Z,48.40
2018-02-21T09:10:53.996Z,49.60
2018-02-21T09:13:21.486Z,50.37
2018-02-21T09:15:48.960Z,51.87
2018-02-21T09:18:16.556Z,48.87
2018-02-21T09:20:44.825Z,52.00
2018-02-21T09:23:13.110Z,51.20
2018-02-21T09:25:41.351Z,49.97
2018-02-21T09:28:08.823Z,51.80
2018-02-21T09:30:36.282Z,49.70
2018-02-21T09:33:03.765Z,53.87
2018-02-21T09:35:31.991Z,51.00
2018-02-21T09:37:59.468Z,50.23
2018-02-21T09:40:27.247Z,56.70
2018-02-21T09:42:55.598Z,52.43
2018-02-21T09:45:23.086Z,52.57
2018-02-21T09:47:51.374Z,59.30
2018-02-21T09:50:19.713Z,57.20
2018-02-21T09:52:47.191Z,57.90
2018-02-21T09:55:14.671Z,59.17
2018-02-21T09:57:42.898Z,55.97
2018-02-21T10:00:10.824Z,60.47
2018-02-21T10:02:39.066Z,60.80
2018-02-21T10:05:06.534Z,62.70
2018-02-21T10:07:34.045Z,62.87
2018-02-21T10:10:01.527Z,60.20
2018-02-21T10:12:29.168Z,46.17
2018-02-21T10:14:56.899Z,59.60
2018-02-21T10:17:25.135Z,59.23
2018-02-21T10:19:52.627Z,65.33
2018-02-21T10:22:20.953Z,61.37
2018-02-21T10:24:48.414Z,61.57
2018-02-21T10:27:15.906Z,61.80
2018-02-21T10:29:44.175Z,63.40
2018-02-21T10:32:11.660Z,60.03
2018-02-21T10:34:39.915Z,64.23
2018-02-21T10:37:07.396Z,61.57
2018-02-21T10:39:35.630Z,57.17
2018-02-21T10:42:03.127Z,56.13
2018-02-21T10:44:31.355Z,55.60
2018-02-21T10:46:58.846Z,56.70
2018-02-21T10:49:26.313Z,56.77
2018-02-21T10:51:54.596Z,58.40
2018-02-21T10:54:22.854Z,53.80
2018-02-21T10:56:50.341Z,55.70
2018-02-21T10:59:18.583Z,54.67
2018-02-21T11:01:46.050Z,65.57
2018-02-21T11:04:13.541Z,58.57
2018-02-21T11:06:41.007Z,63.23
2018-02-21T11:09:08.487Z,59.37
2018-02-21T11:11:35.954Z,60.43
2018-02-21T11:14:03.462Z,62.17
2018-02-21T11:16:31.703Z,57.50
2018-02-21T11:18:59.199Z,61.03
2018-02-21T11:21:27.426Z,58.77
2018-02-21T11:23:55.085Z,65.00
2018-02-21T11:26:22.685Z,64.47
2018-02-21T11:28:50.970Z,59.90
2018-02-21T11:31:18.443Z,63.50
2018-02-21T11:33:47.084Z,56.30
2018-02-21T11:36:14.584Z,64.30
2018-02-21T11:38:42.893Z,56.63
2018-02-21T11:41:10.902Z,58.90
2018-02-21T11:43:38.473Z,62.33
2018-02-21T11:46:05.960Z,59.33
2018-02-21T11:48:33.458Z,61.87
2018-02-21T11:51:01.216Z,65.83
2018-02-21T11:53:28.805Z,59.63
2018-02-21T11:55:57.733Z,59.47
2018-02-21T11:58:25.591Z,61.60
2018-02-21T12:00:54.116Z,61.03
2018-02-21T12:03:21.646Z,58.80
2018-02-21T12:05:50.173Z,62.97
2018-02-21T12:08:17.678Z,59.30
2018-02-21T12:10:47.081Z,63.30
2018-02-21T12:13:16.022Z,62.00
2018-02-21T12:15:43.483Z,60.97
2018-02-21T12:18:11.094Z,62.43
2018-02-21T12:20:39.353Z,62.23
2018-02-21T12:23:07.626Z,59.63
2018-02-21T12:25:35.131Z,65.87
2018-02-21T12:28:02.700Z,62.03
2018-02-21T12:30:30.289Z,61.70
2018-02-21T12:32:58.525Z,60.33
2018-02-21T12:35:26.125Z,57.83
2018-02-21T12:37:53.636Z,59.20
2018-02-21T12:40:26.723Z,58.00
2018-02-21T12:42:54.990Z,62.10
2018-02-21T12:45:22.494Z,57.90
2018-02-21T12:47:50.921Z,65.20
2018-02-21T12:50:18.547Z,62.50
2018-02-21T12:52:46.026Z,60.00
2018-02-21T12:55:13.793Z,56.80
2018-02-21T12:57:41.359Z,57.70
2018-02-21T13:00:08.853Z,59.27
2018-02-21T13:02:37.089Z,58.90
2018-02-21T13:05:04.576Z,56.30
2018-02-21T13:07:33.022Z,49.70
2018-02-21T13:10:01.022Z,48.77
2018-02-21T13:12:28.492Z,46.17
2018-02-21T13:14:56.794Z,51.67
2018-02-21T13:17:24.291Z,49.93
2018-02-21T13:19:51.776Z,48.27
2018-02-21T13:22:19.271Z,42.63
2018-02-21T13:24:46.760Z,47.77
2018-02-21T13:27:14.501Z,50.03
2018-02-21T13:29:42.009Z,45.67
2018-02-21T13:32:09.508Z,48.20
2018-02-21T13:34:37.766Z,45.27
2018-02-21T13:37:06.121Z,42.07
2018-02-21T13:39:33.710Z,43.10
2018-02-21T13:42:01.177Z,35.90
2018-02-21T13:44:29.682Z,40.77
2018-02-21T13:46:57.193Z,37.23
2018-02-21T13:49:24.676Z,40.27
2018-02-21T13:51:52.918Z,40.00
2018-02-21T13:54:20.433Z,37.93
2018-02-21T13:56:47.919Z,31.17
2018-02-21T13:59:15.412Z,32.43
2018-02-21T14:01:42.884Z,33.30
2018-02-21T14:04:11.161Z,33.47
2018-02-21T14:06:39.403Z,36.73
2018-02-21T14:09:06.912Z,34.97
2018-02-21T14:11:36.420Z,33.50
2018-02-21T14:14:03.920Z,31.83
2018-02-21T14:16:31.397Z,29.40
2018-02-21T14:18:58.861Z,32.17
2018-02-21T14:21:26.359Z,29.43
2018-02-21T14:23:53.852Z,30.50
2018-02-21T14:26:21.347Z,33.13
2018-02-21T14:28:49.590Z,29.23
2018-02-21T14:31:17.104Z,32.80
2018-02-21T14:33:44.618Z,32.87
2018-02-21T14:36:12.149Z,31.90
2018-02-21T14:38:39.664Z,33.40
2018-02-21T14:41:08.072Z,33.13
2018-02-21T14:43:35.561Z,30.07
2018-02-21T14:46:03.055Z,30.40
2018-02-21T14:48:32.030Z,31.27
2018-02-21T14:50:59.586Z,31.07
2018-02-21T14:53:27.067Z,31.00
2018-02-21T14:55:55.309Z,35.77
2018-02-21T14:58:22.800Z,31.13
2018-02-21T15:00:51.071Z,33.00
2018-02-21T15:03:20.154Z,31.23
2018-02-21T15:05:47.697Z,30.63
2018-02-21T15:08:15.176Z,28.70
2018-02-21T15:10:47.273Z,30.50
2018-02-21T15:13:19.834Z,30.33
2018-02-21T15:15:51.802Z,31.10
2018-02-21T15:18:21.464Z,31.60
2018-02-21T15:20:49.412Z,31.47
2018-02-21T15:23:16.966Z,31.37
2018-02-21T15:25:44.449Z,27.20
2018-02-21T15:28:17.731Z,32.00
2018-02-21T15:30:45.224Z,31.17
2018-02-21T15:33:12.960Z,33.77
2018-02-21T15:35:40.435Z,30.40
2018-02-21T15:38:10.037Z,28.13
2018-02-21T15:40:38.355Z,30.10
2018-02-21T15:43:05.821Z,31.50
2018-02-21T15:45:34.632Z,29.67
2018-02-21T15:48:02.450Z,29.63
2018-02-21T15:50:29.929Z,31.33
2018-02-21T15:52:57.383Z,26.23
2018-02-21T15:55:24.880Z,27.13
2018-02-21T15:57:52.359Z,31.10
2018-02-21T16:00:19.965Z,29.67
2018-02-21T16:02:47.954Z,29.67
2018-02-21T16:05:16.446Z,30.10
2018-02-21T16:07:44.668Z,30.77
2018-02-21T16:10:12.127Z,29.20
2018-02-21T16:12:39.629Z,30.00
2018-02-21T16:15:07.946Z,29.47
2018-02-21T16:17:35.451Z,28.53
2018-02-21T16:20:03.479Z,32.20
2018-02-21T16:22:31.104Z,29.13
2018-02-21T16:24:59.349Z,30.70
2018-02-21T16:27:26.835Z,30.33
2018-02-21T16:29:55.063Z,30.90
2018-02-21T16:32:22.618Z,27.67
2018-02-21T16:34:50.789Z,31.00
2018-02-21T16:37:18.288Z,28.27
2018-02-21T16:39:45.755Z,28.93
2018-02-21T16:42:13.326Z,22.97
2018-02-21T16:44:41.555Z,28.73
2018-02-21T16:47:09.567Z,28.50
2018-02-21T16:49:38.082Z,29.07
2018-02-21T16:52:05.539Z,27.40
2018-02-21T16:54:33.028Z,31.47
2018-02-21T16:57:01.059Z,29.53
2018-02-21T16:59:28.588Z,30.33
2018-02-21T17:02:00.188Z,31.97
2018-02-21T17:04:27.928Z,30.70
2018-02-21T17:06:55.413Z,29.27
2018-02-21T17:09:23.711Z,29.77
2018-02-21T17:11:51.170Z,30.27
2018-02-21T17:14:18.686Z,30.40
2018-02-21T17:16:47.490Z,31.67
2018-02-21T17:19:15.031Z,30.40
2018-02-21T17:21:43.288Z,30.53
2018-02-21T17:24:12.828Z,32.33
2018-02-21T17:26:41.072Z,26.73
2018-02-21T17:29:09.326Z,32.70
2018-02-21T17:31:36.832Z,31.63
2018-02-21T17:34:04.290Z,31.80
2018-02-21T17:36:31.775Z,29.93
2018-02-21T17:38:59.247Z,31.70
2018-02-21T17:41:32.813Z,29.97
2018-02-21T17:44:00.300Z,30.93
2018-02-21T17:46:27.799Z,28.10
2018-02-21T17:48:55.776Z,29.80
2018-02-21T17:51:24.022Z,26.23
2018-02-21T17:53:51.497Z,30.80
2018-02-21T17:56:20.974Z,28.37
2018-02-21T17:58:48.538Z,29.40
2018-02-21T18:01:16.006Z,29.47
2018-02-21T18:03:46.997Z,29.23
2018-02-21T18:06:14.481Z,27.27
2018-02-21T18:08:41.939Z,28.57
2018-02-21T18:11:09.407Z,27.90
2018-02-21T18:13:36.906Z,29.03
2018-02-21T18:16:05.139Z,28.47
2018-02-21T18:18:33.382Z,30.17
2018-02-21T18:21:02.062Z,32.03
2018-02-21T18:23:30.326Z,30.97
2018-02-21T18:25:58.844Z,31.10
2018-02-21T18:28:26.319Z,33.53
2018-02-21T18:30:53.783Z,30.67
2018-02-21T18:33:21.247Z,33.30
2018-02-21T18:35:49.415Z,35.80
2018-02-21T18:38:16.899Z,33.60
2018-02-21T18:40:44.378Z,33.70
2018-02-21T18:43:12.693Z,35.40
2018-02-21T18:45:40.181Z,37.23
2018-02-21T18:48:07.638Z,34.17
2018-02-21T18:50:35.138Z,37.60
2018-02-21T18:53:02.625Z,32.90
2018-02-21T18:55:30.095Z,35.83
2018-02-21T18:57:57.586Z,37.13
2018-02-21T19:00:25.066Z,37.73
2018-02-21T19:02:53.326Z,34.87
2018-02-21T19:05:21.069Z,39.10
2018-02-21T19:07:48.531Z,40.30
2018-02-21T19:10:16.033Z,36.67
2018-02-21T19:12:43.511Z,37.20
2018-02-21T19:15:11.492Z,37.57
2018-02-21T19:17:38.959Z,36.83
2018-02-21T19:20:06.431Z,35.57
2018-02-21T19:22:33.889Z,33.17
2018-02-21T19:25:02.540Z,34.00
2018-02-21T19:27:30.013Z,35.87
2018-02-21T19:29:57.491Z,37.50
2018-02-21T19:32:24.980Z,40.10
2018-02-21T19:34:53.228Z,36.50
2018-02-21T19:37:20.755Z,36.47
2018-02-21T19:39:48.214Z,33.40
2018-02-21T19:42:15.688Z,40.63
2018-02-21T19:44:43.150Z,37.37
2018-02-21T19:47:11.386Z,36.57
2018-02-21T19:49:40.041Z,35.80
2018-02-21T19:52:07.833Z,41.13
2018-02-21T19:54:36.067Z,38.07
2018-02-21T19:57:03.576Z,37.93
2018-02-21T19:59:31.052Z,39.30
2018-02-21T20:01:58.544Z,39.50
2018-02-21T20:04:25.994Z,39.70
2018-02-21T20:06:53.513Z,37.50
2018-02-21T20:09:20.991Z,40.20
2018-02-21T20:11:48.497Z,38.50
2018-02-21T20:14:16.039Z,41.87
2018-02-21T20:16:43.528Z,38.37
2018-02-21T20:19:11.792Z,39.97
2018-02-21T20:21:39.820Z,38.77
2018-02-21T20:24:07.523Z,43.00
2018-02-21T20:26:35.011Z,42.60
2018-02-21T20:29:02.489Z,42.33
2018-02-21T20:31:29.996Z,42.93
2018-02-21T20:33:57.480Z,41.60
2018-02-21T20:36:26.117Z,42.13
2018-02-21T20:38:53.829Z,41.03
2018-02-21T20:41:22.304Z,40.73
2018-02-21T20:43:50.554Z,41.93
2018-02-21T20:46:18.042Z,42.57
2018-02-21T20:48:46.677Z,41.57
2018-02-21T20:51:14.254Z,41.57
2018-02-21T20:53:41.742Z,44.63
2018-02-21T20:56:10.019Z,46.53
2018-02-21T20:58:38.381Z,41.77
2018-02-21T21:01:06.665Z,43.60
2018-02-21T21:03:34.226Z,41.97
2018-02-21T21:06:01.683Z,43.30
2018-02-21T21:08:29.190Z,45.37
2018-02-21T21:10:56.676Z,43.60
2018-02-21T21:13:24.159Z,42.50
2018-02-21T21:15:51.631Z,44.03
2018-02-21T21:18:19.892Z,44.27
2018-02-21T21:20:47.370Z,46.83
2018-02-21T21:23:15.708Z,39.90
2018-02-21T21:25:43.256Z,41.47
2018-02-21T21:28:10.758Z,40.13
2018-02-21T21:30:38.561Z,40.90
2018-02-21T21:33:06.184Z,43.53
2018-02-21T21:35:33.968Z,43.20
2018-02-21T21:38:02.214Z,37.47
2018-02-21T21:40:29.751Z,40.70
2018-02-21T21:42:57.268Z,37.97
2018-02-21T21:45:24.775Z,40.40
2018-02-21T21:47:52.271Z,37.87
2018-02-21T21:50:20.523Z,37.73
2018-02-21T21:52:48.907Z,37.57
2018-02-21T21:55:17.194Z,36.27
2018-02-21T21:57:44.661Z,37.87
2018-02-21T22:00:12.917Z,38.93
2018-02-21T22:02:40.399Z,37.73
2018-02-21T22:05:08.634Z,34.73
2018-02-21T22:07:36.114Z,37.90
2018-02-21T22:10:03.632Z,36.03
2018-02-21T22:12:31.102Z,36.20
2018-02-21T22:14:58.578Z,34.13
2018-02-21T22:17:26.069Z,37.80
2018-02-21T22:19:54.326Z,39.03
2018-02-21T22:22:21.795Z,36.77
2018-02-21T22:24:50.039Z,39.23
2018-02-21T22:27:17.562Z,36.27
2018-02-21T22:29:45.027Z,34.60
2018-02-21T22:32:12.687Z,36.20
2018-02-21T22:34:40.160Z,34.60
2018-02-21T22:37:07.643Z,36.50
2018-02-21T22:39:35.103Z,34.67
2018-02-21T22:42:02.595Z,40.73
2018-02-21T22:44:30.840Z,34.70
2018-02-21T22:46:58.315Z,35.20
2018-02-21T22:49:25.797Z,33.73
2018-02-21T22:51:53.267Z,37.30
2018-02-21T22:54:20.727Z,32.63
2018-02-21T22:56:48.227Z,36.97
2018-02-21T22:59:15.706Z,35.73
2018-02-21T23:01:43.948Z,37.40
2018-02-21T23:04:12.968Z,35.37
2018-02-21T23:06:41.198Z,36.50
2018-02-21T23:09:08.774Z,34.63
2018-02-21T23:11:36.277Z,37.63
2018-02-21T23:14:04.527Z,36.87
2018-02-21T23:16:32.038Z,37.17
2018-02-21T23:18:59.502Z,38.30
2018-02-21T23:21:26.975Z,36.57
2018-02-21T23:23:54.457Z,36.90
2018-02-21T23:26:21.922Z,37.33
2018-02-21T23:28:49.406Z,40.67
2018-02-21T23:31:17.651Z,37.50
2018-02-21T23:33:45.132Z,33.20
2018-02-21T23:36:12.606Z,36.00
2018-02-21T23:38:40.900Z,38.97
2018-02-21T23:41:08.405Z,36.03
2018-02-21T23:43:35.858Z,35.97
2018-02-21T23:46:03.337Z,35.27
2018-02-21T23:48:30.834Z,34.87
2018-02-21T23:50:58.314Z,35.27
2018-02-21T23:53:25.810Z,34.33
2018-02-21T23:55:53.293Z,34.93
2018-02-21T23:58:20.777Z,36.53
